Time;durP1;ratioP1;P1;durP2;ratioP2;P2;SDS_P1;SDS_P2;PMS_P1;PMS_P2;Temp;Humidity;BMP_temperature;BMP_pressure;BME280_temperature;BME280_humidity;BME280_pressure;Samples;Min_cycle;Max_cycle;Signal;HPM_P1;HPM_P2
2023/10/18 00:03:23;;;;;;;0.35;0.20;;;;;;;19.52;89.29;99084.53;10255634;28;96870;-78
2023/10/18 00:08:44;;;;;;;1.02;0.38;;;;;;;19.43;89.04;99096.94;10215285;28;96893;-77
2023/10/18 00:14:24;;;;;;;;;;;;;;;;;;;;;
2023/10/18 00:20:19;;;;;;;1.17;0.10;;;;;;;19.37;88.41;99115.31;10155838;28;97897;-77
2023/10/18 00:25:50;;;;;;;2.28;0.30;;;;;;;19.42;88.48;99115.75;10229017;28;97610;-77
2023/10/18 00:31:25;;;;;;;;;;;;;;;;;;;;;
2023/10/18 00:42:33;;;;;;;2.30;0.20;;;;;;;19.34;88.28;99144.94;10223749;28;97120;-77
2023/10/18 00:53:56;;;;;;;2.53;0.47;;;;;;;19.23;88.23;99153.94;10255017;28;97122;-77
2023/10/18 00:59:26;;;;;;;0.50;0.28;;;;;;;19.29;87.78;99175.56;10253993;28;96707;-77
2023/10/18 01:04:46;;;;;;;1.70;0.50;;;;;;;19.18;87.24;99172.19;10253008;28;97365;-77
2023/10/18 01:10:07;;;;;;;3.47;0.68;;;;;;;19.18;87.21;99178.34;10253126;28;97291;-77
2023/10/18 01:15:28;;;;;;;4.35;0.47;;;;;;;19.16;86.83;99182.97;10252794;28;96833;-77
2023/10/18 01:20:49;;;;;;;1.45;0.35;;;;;;;19.24;86.83;99187.63;10252934;28;97090;-77
2023/10/18 01:26:19;;;;;;;2.70;0.70;;;;;;;19.31;86.55;99196.75;10253641;28;96782;-78
2023/10/18 01:31:57;;;;;;;2.13;0.50;;;;;;;19.20;86.55;99197.72;10212645;28;96687;-78
2023/10/18 01:42:48;;;;;;;3.33;0.60;;;;;;;19.24;86.11;99212.47;10245393;28;97008;-77
2023/10/18 01:48:04;;;;;;;3.70;0.77;;;;;;;19.30;85.99;99225.25;10254254;28;97008;-77
2023/10/18 01:53:29;;;;;;;2.72;0.52;;;;;;;19.20;86.14;99237.75;10252603;28;97238;-77
2023/10/18 01:59:03;;;;;;;;;;;;;;;;;;;;;
2023/10/18 02:04:45;;;;;;;3.25;0.98;;;;;;;19.24;86.06;99251.66;10289329;28;96767;-77
2023/10/18 02:10:03;;;;;;;3.92;0.68;;;;;;;19.22;85.88;99245.59;10299662;28;96771;-77
2023/10/18 02:15:30;;;;;;;5.55;0.95;;;;;;;19.27;85.67;99254.88;10297428;28;96618;-77
2023/10/18 02:20:50;;;;;;;2.78;0.85;;;;;;;19.20;85.48;99256.41;10272416;28;96821;-78
2023/10/18 02:26:22;;;;;;;4.32;1.30;;;;;;;19.24;85.24;99259.66;10258699;28;96757;-77
2023/10/18 02:31:44;;;;;;;4.97;0.80;;;;;;;19.17;84.67;99259.38;10258556;28;96794;-77
2023/10/18 02:37:09;;;;;;;4.95;1.17;;;;;;;19.20;84.62;99269.75;10273102;28;97288;-77
2023/10/18 02:42:18;;;;;;;3.63;1.00;;;;;;;19.18;84.56;99266.38;10258588;28;96700;-77
2023/10/18 02:47:41;;;;;;;2.15;0.70;;;;;;;19.21;84.61;99267.94;10257802;28;96877;-76
2023/10/18 02:52:50;;;;;;;3.15;0.70;;;;;;;19.33;84.62;99268.63;10268579;28;97835;-77
2023/10/18 02:57:56;;;;;;;6.20;1.17;;;;;;;19.26;84.00;99269.22;10297209;28;96984;-77
2023/10/18 03:03:04;;;;;;;1.92;0.85;;;;;;;19.45;83.89;99271.06;10297127;28;96791;-76
2023/10/18 03:08:10;;;;;;;3.42;1.00;;;;;;;19.53;83.91;99270.38;10223358;28;96809;-77
2023/10/18 03:13:13;;;;;;;3.87;0.83;;;;;;;19.57;83.84;99266.44;10295653;28;96977;-77
2023/10/18 03:18:19;;;;;;;2.65;0.63;;;;;;;19.58;83.94;99276.13;10289033;28;96728;-76
2023/10/18 03:23:26;;;;;;;5.47;1.10;;;;;;;19.56;83.88;99284.28;10256639;28;96892;-77
2023/10/18 03:28:34;;;;;;;3.92;0.90;;;;;;;19.52;83.54;99282.03;10257001;28;96788;-77
2023/10/18 03:33:39;;;;;;;4.32;0.88;;;;;;;19.54;83.31;99266.72;10274558;22;97810;-76
2023/10/18 03:38:42;;;;;;;3.42;0.93;;;;;;;19.64;83.07;99262.22;10296678;28;96748;-76
2023/10/18 03:43:48;;;;;;;6.38;1.13;;;;;;;19.62;82.31;99261.50;10284395;28;96727;-76
2023/10/18 03:48:54;;;;;;;6.03;1.20;;;;;;;19.60;82.42;99269.66;10254901;28;98139;-76
2023/10/18 03:54:00;;;;;;;6.22;1.02;;;;;;;19.62;82.38;99282.84;10256142;28;96758;-76
2023/10/18 03:59:10;;;;;;;5.68;0.95;;;;;;;19.57;83.22;99279.78;10255888;28;96599;-76
2023/10/18 04:04:19;;;;;;;5.65;0.90;;;;;;;19.60;82.65;99284.81;10268651;28;97267;-76
2023/10/18 04:09:23;;;;;;;2.35;0.80;;;;;;;19.53;82.28;99284.53;10295781;28;96733;-76
2023/10/18 04:14:29;;;;;;;3.67;0.85;;;;;;;19.40;81.88;99278.66;10295224;28;97330;-77
2023/10/18 04:19:34;;;;;;;3.45;0.80;;;;;;;19.21;82.11;99278.59;10268564;28;96637;-77
2023/10/18 04:24:39;;;;;;;5.15;0.90;;;;;;;19.01;82.71;99293.72;10254623;28;96702;-77
2023/10/18 04:29:47;;;;;;;4.03;0.88;;;;;;;18.96;83.50;99311.09;10254513;28;97045;-78
2023/10/18 04:34:56;;;;;;;4.65;0.82;;;;;;;19.07;83.53;99298.50;10253769;28;97166;-77
2023/10/18 04:39:59;;;;;;;2.90;0.70;;;;;;;19.13;83.11;99297.09;10253669;28;96863;-77
2023/10/18 04:45:16;;;;;;;2.60;0.65;;;;;;;19.13;83.23;99308.63;10253175;28;96711;-77
2023/10/18 04:50:29;;;;;;;2.90;0.50;;;;;;;19.25;83.40;99307.53;10254810;28;97105;-77
2023/10/18 04:55:33;;;;;;;2.35;0.60;;;;;;;19.34;83.24;99313.84;10213407;28;96807;-77
2023/10/18 05:00:50;;;;;;;2.97;1.27;;;;;;;19.37;83.34;99310.94;10213573;28;96684;-77
2023/10/18 05:05:56;;;;;;;4.72;0.80;;;;;;;19.29;83.20;99316.94;10285904;28;97328;-77
2023/10/18 05:11:22;;;;;;;2.30;1.05;;;;;;;19.21;83.44;99308.78;10263862;28;96965;-77
2023/10/18 05:16:29;;;;;;;8.35;2.35;;;;;;;19.26;83.43;99321.72;10254181;28;97010;-77
2023/10/18 05:21:38;;;;;;;1.27;0.68;;;;;;;19.13;84.40;99310.44;10253329;28;96548;-77
2023/10/18 05:26:44;;;;;;;3.70;0.80;;;;;;;19.17;83.91;99315.38;10253144;28;96858;-77
2023/10/18 05:32:05;;;;;;;3.92;0.57;;;;;;;19.20;83.90;99311.56;10252506;28;96933;-77
2023/10/18 05:37:14;;;;;;;2.40;1.30;;;;;;;19.24;83.63;99315.66;10260256;28;96885;-77
2023/10/18 05:42:21;;;;;;;2.65;0.88;;;;;;;19.18;83.77;99321.56;10259615;28;96843;-77
2023/10/18 05:47:25;;;;;;;2.28;0.50;;;;;;;19.32;83.60;99323.00;10260322;28;97107;-77
2023/10/18 05:52:38;;;;;;;3.47;1.23;;;;;;;19.39;83.49;99322.28;10259837;28;97175;-77
2023/10/18 05:57:42;;;;;;;5.60;2.55;;;;;;;19.33;83.35;99328.19;10259652;28;96692;-77
2023/10/18 06:02:45;;;;;;;1.67;1.08;;;;;;;19.39;83.43;99330.28;10259188;28;97041;-77
2023/10/18 06:07:51;;;;;;;1.23;0.50;;;;;;;19.38;83.57;99338.44;10259873;28;96679;-77
2023/10/18 06:12:58;;;;;;;0.52;0.32;;;;;;;19.41;83.57;99340.88;10258891;28;97138;-77
2023/10/18 06:18:01;;;;;;;2.53;0.30;;;;;;;19.38;83.92;99343.75;10258461;28;96664;-77
2023/10/18 06:23:09;;;;;;;1.88;0.40;;;;;;;19.37;83.91;99340.28;10257702;28;96882;-77
2023/10/18 06:28:20;;;;;;;0.88;0.30;;;;;;;19.32;84.17;99345.16;10258637;28;96671;-77
2023/10/18 06:33:26;;;;;;;0.63;0.22;;;;;;;19.16;84.96;99347.53;10257539;28;96704;-78
2023/10/18 06:38:32;;;;;;;1.30;0.30;;;;;;;19.16;84.84;99356.34;10258202;28;96763;-77
2023/10/18 06:43:41;;;;;;;0.17;0.08;;;;;;;19.21;84.47;99369.28;10257368;28;96924;-77
2023/10/18 06:48:44;;;;;;;0.25;0.10;;;;;;;19.23;84.31;99380.69;10257900;28;96725;-77
2023/10/18 06:54:13;;;;;;;0.65;0.30;;;;;;;19.18;84.25;99381.06;10257717;28;96921;-77
2023/10/18 06:59:25;;;;;;;0.35;0.20;;;;;;;19.23;83.92;99397.50;10277869;28;96690;-77
2023/10/18 07:04:35;;;;;;;0.63;0.43;;;;;;;19.26;83.94;99391.06;10297725;28;97325;-77
2023/10/18 07:09:42;;;;;;;1.50;0.20;;;;;;;19.32;83.89;99392.34;10270097;28;96776;-78
2023/10/18 07:14:49;;;;;;;1.38;0.20;;;;;;;19.30;84.28;99400.50;10256186;28;96707;-77
2023/10/18 07:19:56;;;;;;;0.30;0.20;;;;;;;19.25;84.90;99408.03;10256562;28;96626;-77
2023/10/18 07:25:01;;;;;;;1.27;0.03;;;;;;;19.18;85.31;99420.25;10256960;28;97236;-77
2023/10/18 07:30:14;;;;;;;0.50;0.15;;;;;;;19.08;85.98;99428.19;10256484;28;97101;-77
2023/10/18 07:35:30;;;;;;;0.17;0.10;;;;;;;19.26;85.24;99431.06;10255763;28;96832;-77
2023/10/18 07:40:40;;;;;;;0.10;0.10;;;;;;;19.23;85.62;99436.69;10256081;28;97495;-77
2023/10/18 07:45:57;;;;;;;0.40;0.17;;;;;;;19.32;85.20;99448.38;10256119;28;96655;-77
2023/10/18 07:51:03;;;;;;;0.65;0.20;;;;;;;19.37;84.99;99446.13;10256764;28;96507;-77
2023/10/18 07:56:11;;;;;;;1.48;0.40;;;;;;;19.30;84.95;99440.50;10258576;28;96935;-77
2023/10/18 08:01:14;;;;;;;1.27;0.40;;;;;;;19.38;84.33;99462.00;10263900;28;97031;-77
2023/10/18 08:06:26;;;;;;;0.22;0.22;;;;;;;19.39;84.34;99481.53;10254404;28;97084;-77
2023/10/18 08:11:34;;;;;;;0.20;0.20;;;;;;;19.31;84.76;99490.19;10255567;28;96919;-77
2023/10/18 08:16:55;;;;;;;1.33;0.30;;;;;;;19.19;86.00;99502.81;10254957;28;96679;-77
2023/10/18 08:22:21;;;;;;;1.85;0.40;;;;;;;19.38;85.58;99510.03;10255146;28;96922;-77
2023/10/18 08:27:29;;;;;;;1.20;0.20;;;;;;;19.23;85.61;99514.88;10255128;28;97702;-77
2023/10/18 08:32:40;;;;;;;0.32;0.20;;;;;;;19.05;85.29;99518.28;10254003;28;97044;-78
2023/10/18 08:37:45;;;;;;;2.33;0.40;;;;;;;19.01;85.68;99520.38;10254592;28;96948;-77
2023/10/18 08:42:56;;;;;;;0.98;0.22;;;;;;;19.00;85.41;99541.84;10254617;28;96738;-77
2023/10/18 08:48:06;;;;;;;1.52;0.45;;;;;;;18.98;85.80;99538.44;10254311;28;96867;-77
2023/10/18 08:53:11;;;;;;;1.92;0.40;;;;;;;18.93;86.21;99541.53;10253183;28;97076;-77
2023/10/18 08:58:22;;;;;;;0.55;0.20;;;;;;;18.89;85.96;99548.09;10283525;28;97109;-78
2023/10/18 09:03:27;;;;;;;0.52;0.30;;;;;;;18.90;85.92;99547.13;10294874;28;96561;-77
2023/10/18 09:08:35;;;;;;;1.05;0.30;;;;;;;18.99;85.71;99543.66;10255728;28;96990;-77
2023/10/18 09:14:05;;;;;;;0.63;0.45;;;;;;;18.88;85.76;99538.41;10253364;28;97011;-77
2023/10/18 09:19:07;;;;;;;0.57;0.25;;;;;;;18.93;86.20;99540.66;10253321;28;96945;-77
2023/10/18 09:24:15;;;;;;;0.20;0.20;;;;;;;18.93;85.30;99541.53;10253152;28;96769;-77
2023/10/18 09:29:20;;;;;;;1.63;0.50;;;;;;;19.11;84.90;99552.44;10253421;28;96624;-77
2023/10/18 09:34:33;;;;;;;1.15;0.40;;;;;;;19.21;84.35;99559.53;10253436;28;97712;-77
2023/10/18 09:39:43;;;;;;;1.38;0.40;;;;;;;19.47;83.83;99551.97;10253325;28;96913;-77
2023/10/18 09:44:47;;;;;;;0.70;0.40;;;;;;;19.58;83.42;99543.03;10252638;28;96649;-77
2023/10/18 09:49:50;;;;;;;;;;;;;;;20.22;82.57;99560.38;10251935;28;96941;-76
2023/10/18 09:55:01;;;;;;;1.35;0.35;;;;;;;20.17;82.46;99571.44;10269948;28;97009;-77
2023/10/18 10:00:11;;;;;;;2.42;0.63;;;;;;;20.00;82.23;99565.91;10261639;28;96708;-77
2023/10/18 10:05:24;;;;;;;0.68;0.43;;;;;;;20.14;81.82;99570.88;10251565;28;96768;-77
2023/10/18 10:10:43;;;;;;;1.38;0.60;;;;;;;20.23;80.81;99565.56;10252000;28;97149;-76
2023/10/18 10:15:55;;;;;;;3.40;0.68;;;;;;;20.22;80.44;99561.19;10251635;28;96634;-76
2023/10/18 10:21:02;;;;;;;4.15;1.15;;;;;;;20.25;78.60;99552.88;10255120;28;96797;-76
2023/10/18 10:26:15;;;;;;;2.55;0.55;;;;;;;20.43;77.58;99550.41;10259118;28;96982;-76
2023/10/18 10:31:26;;;;;;;2.20;0.70;;;;;;;21.07;75.39;99554.19;10255156;28;96688;-77
2023/10/18 10:36:29;;;;;;;2.10;0.82;;;;;;;21.12;76.37;99546.56;10257979;28;97359;-76
2023/10/18 10:41:34;;;;;;;3.00;0.80;;;;;;;20.97;76.84;99541.81;10256768;28;97517;-76
2023/10/18 10:46:39;;;;;;;2.30;0.68;;;;;;;21.64;74.88;99526.41;10258138;28;97234;-76
2023/10/18 10:51:49;;;;;;;4.47;0.80;;;;;;;23.83;69.34;99512.94;10257909;28;96579;-76
2023/10/18 10:57:00;;;;;;;2.28;1.15;;;;;;;24.00;66.87;99509.28;10298039;28;96820;-77
2023/10/18 11:02:07;;;;;;;2.22;1.10;;;;;;;26.91;63.29;99514.63;10295874;28;96641;-77
2023/10/18 11:07:13;;;;;;;2.28;0.90;;;;;;;27.65;62.31;99510.19;10257379;28;96780;-77
2023/10/18 11:12:17;;;;;;;2.20;0.98;;;;;;;25.07;59.89;99497.47;10257344;28;97145;-77
2023/10/18 11:17:24;;;;;;;2.72;0.90;;;;;;;25.60;58.77;99503.09;10257904;28;98044;-77
2023/10/18 11:22:31;;;;;;;4.35;1.20;;;;;;;24.38;61.00;99505.19;10256762;28;96716;-77
2023/10/18 11:27:34;;;;;;;2.20;0.90;;;;;;;25.70;58.08;99502.91;10254232;28;96899;-77
2023/10/18 11:32:39;;;;;;;3.05;0.90;;;;;;;23.95;60.10;99505.41;10254768;28;96815;-77
2023/10/18 11:37:47;;;;;;;5.13;1.30;;;;;;;24.36;59.67;99502.69;10256497;28;96706;-77
2023/10/18 11:43:05;;;;;;;3.30;1.02;;;;;;;24.12;59.47;99499.06;10256229;28;97193;-77
2023/10/18 11:48:10;;;;;;;3.90;1.25;;;;;;;25.43;54.73;99497.94;10255973;28;97076;-77
2023/10/18 11:53:15;;;;;;;4.90;1.23;;;;;;;24.22;57.68;99476.41;10255908;28;96728;-77
2023/10/18 11:58:19;;;;;;;4.95;1.02;;;;;;;25.84;53.60;99470.66;10255739;28;96750;-77
2023/10/18 12:03:27;;;;;;;2.47;1.10;;;;;;;24.93;55.96;99448.88;10255647;28;96757;-77
2023/10/18 12:08:47;;;;;;;4.10;1.50;;;;;;;24.79;55.40;99453.91;10256210;28;97183;-77
2023/10/18 12:13:51;;;;;;;4.32;1.20;;;;;;;26.12;52.35;99445.91;10255409;28;96909;-77
2023/10/18 12:19:06;;;;;;;4.28;0.98;;;;;;;27.36;48.30;99435.34;10255237;28;96980;-77
2023/10/18 12:24:10;;;;;;;2.45;1.00;;;;;;;27.74;48.43;99414.44;10219774;28;96863;-77
2023/10/18 12:29:17;;;;;;;4.38;0.80;;;;;;;27.77;45.96;99411.38;10214716;28;96655;-77
2023/10/18 12:34:28;;;;;;;3.53;0.90;;;;;;;28.57;44.07;99410.13;10254012;28;97105;-77
2023/10/18 12:39:35;;;;;;;2.95;0.80;;;;;;;30.21;43.63;99409.19;10254746;28;97363;-77
2023/10/18 12:44:39;;;;;;;2.40;0.90;;;;;;;31.54;41.88;99404.31;10253700;28;96686;-78
2023/10/18 12:49:46;;;;;;;1.70;0.90;;;;;;;31.90;41.13;99385.53;10254378;28;96586;-77
2023/10/18 12:54:51;;;;;;;3.05;1.00;;;;;;;32.30;40.72;99370.59;10254013;28;96667;-78
2023/10/18 13:00:13;;;;;;;4.20;1.20;;;;;;;32.39;39.88;99356.50;10254952;28;96634;-78
2023/10/18 13:05:18;;;;;;;2.60;1.10;;;;;;;31.90;41.22;99352.88;10258784;28;96849;-77
2023/10/18 13:10:29;;;;;;;3.80;0.70;;;;;;;29.45;42.24;99347.16;10253894;28;96722;-77
2023/10/18 13:15:34;;;;;;;2.17;1.00;;;;;;;29.31;41.08;99348.97;10252364;28;96615;-78
2023/10/18 13:20:43;;;;;;;2.95;1.10;;;;;;;28.10;43.47;99340.34;10253300;28;96633;-77
2023/10/18 13:25:51;;;;;;;3.70;1.10;;;;;;;27.63;43.87;99334.63;10253663;28;97338;-77
2023/10/18 13:30:55;;;;;;;2.22;0.88;;;;;;;25.73;46.45;99319.25;10253190;28;96935;-77
2023/10/18 13:36:00;;;;;;;4.38;1.23;;;;;;;26.28;46.81;99300.94;10252809;28;96936;-77
2023/10/18 13:41:04;;;;;;;3.20;0.93;;;;;;;27.76;44.90;99312.34;10252606;28;96856;-78
2023/10/18 13:46:18;;;;;;;3.70;1.40;;;;;;;27.44;45.48;99297.41;10252679;28;96848;-77
2023/10/18 13:51:23;;;;;;;3.95;0.82;;;;;;;26.00;48.53;99286.38;10253159;28;96728;-77
2023/10/18 13:56:26;;;;;;;4.20;1.08;;;;;;;25.02;50.71;99281.78;10258222;28;96631;-77
2023/10/18 14:01:31;;;;;;;4.20;1.48;;;;;;;23.99;52.14;99272.94;10259175;28;97002;-77
2023/10/18 14:06:39;;;;;;;3.25;1.23;;;;;;;24.06;53.30;99260.50;10296438;28;96683;-77
2023/10/18 14:12:00;;;;;;;4.03;1.10;;;;;;;23.54;54.14;99250.09;10294206;28;96870;-77
2023/10/18 14:17:04;;;;;;;5.45;1.30;;;;;;;23.41;54.73;99281.06;10258966;28;96666;-77
2023/10/18 14:22:10;;;;;;;2.85;1.02;;;;;;;23.02;57.12;99296.94;10258997;28;97230;-77
2023/10/18 14:27:15;;;;;;;3.63;1.00;;;;;;;22.45;59.90;99309.19;10258753;28;97139;-77
2023/10/18 14:32:18;;;;;;;1.58;0.88;;;;;;;21.82;64.23;99301.47;10257910;28;96895;-78
2023/10/18 14:37:25;;;;;;;3.78;0.75;;;;;;;21.95;62.95;99294.72;10258225;28;96940;-77
2023/10/18 14:42:29;;;;;;;2.10;0.73;;;;;;;23.33;59.67;99283.75;10258832;28;97307;-77
2023/10/18 14:47:38;;;;;;;2.65;0.60;;;;;;;23.88;58.50;99270.56;10257895;28;97414;-76
2023/10/18 14:52:43;;;;;;;1.75;0.70;;;;;;;23.30;58.12;99262.63;10257846;28;96716;-77
2023/10/18 14:57:46;;;;;;;1.65;0.80;;;;;;;22.58;59.86;99250.59;10256565;28;96574;-77
2023/10/18 15:02:52;;;;;;;4.50;1.38;;;;;;;22.50;59.49;99247.03;10275740;28;96861;-77
2023/10/18 15:07:58;;;;;;;3.15;0.73;;;;;;;21.96;59.92;99244.66;10256406;28;96989;-77
2023/10/18 15:13:03;;;;;;;2.25;0.82;;;;;;;21.98;60.37;99232.84;10257360;28;96663;-77
2023/10/18 15:18:06;;;;;;;2.85;0.70;;;;;;;21.92;60.81;99216.50;10256957;28;96597;-77
2023/10/18 15:23:14;;;;;;;4.63;0.87;;;;;;;22.01;60.97;99215.59;10256468;28;97023;-77
2023/10/18 15:28:17;;;;;;;3.50;0.98;;;;;;;21.89;61.38;99198.91;10256714;28;96578;-77
2023/10/18 15:33:20;;;;;;;2.28;0.80;;;;;;;21.63;62.35;99173.13;10256912;28;97929;-77
2023/10/18 15:38:25;;;;;;;4.13;0.70;;;;;;;21.72;61.95;99158.78;10256387;28;96958;-77
2023/10/18 15:43:30;;;;;;;2.15;0.55;;;;;;;21.69;62.17;99159.13;10256081;28;97005;-76
2023/10/18 15:48:36;;;;;;;2.47;1.03;;;;;;;21.46;62.94;99142.72;10255399;28;97328;-76
2023/10/18 15:53:41;;;;;;;4.32;1.30;;;;;;;21.17;65.45;99115.41;10255586;28;96703;-76
2023/10/18 15:59:01;;;;;;;3.78;1.02;;;;;;;20.77;68.43;99133.72;10260006;28;96841;-78
2023/10/18 16:04:24;;;;;;;4.85;0.98;;;;;;;20.15;72.52;99142.50;10300693;22;98220;-78
2023/10/18 16:10:06;;;;;;;3.35;0.85;;;;;;;20.16;71.35;99139.66;10295012;28;97206;-77
2023/10/18 16:15:13;;;;;;;3.35;0.90;;;;;;;20.42;69.86;99160.38;10255616;28;96934;-77
2023/10/18 16:20:18;;;;;;;2.42;0.70;;;;;;;20.48;69.14;99171.31;10254331;28;96706;-77
2023/10/18 16:25:22;;;;;;;4.07;0.82;;;;;;;20.46;69.54;99172.47;10255746;28;96718;-76
2023/10/18 16:30:27;;;;;;;1.70;0.63;;;;;;;20.43;67.28;99178.09;10254759;28;96744;-77
2023/10/18 16:35:31;;;;;;;1.75;0.50;;;;;;;20.61;67.46;99203.03;10254163;28;96937;-76
2023/10/18 16:40:36;;;;;;;1.98;0.50;;;;;;;20.57;68.09;99190.97;10253332;28;97330;-77
2023/10/18 16:45:40;;;;;;;3.10;0.95;;;;;;;20.57;67.85;99142.88;10254026;28;96655;-76
2023/10/18 16:50:45;;;;;;;4.18;1.35;;;;;;;20.38;70.35;99125.94;10253907;28;96850;-76
2023/10/18 16:55:55;;;;;;;4.07;1.90;;;;;;;20.40;70.19;99149.84;10253861;28;97059;-77
2023/10/18 17:00:59;;;;;;;3.88;1.48;;;;;;;20.39;70.15;99198.94;10282266;28;96869;-77
2023/10/18 17:06:06;;;;;;;3.28;1.35;;;;;;;20.13;71.82;99118.56;10253188;28;97330;-77
2023/10/18 17:11:14;;;;;;;5.85;1.67;;;;;;;20.24;72.07;99080.13;10253415;28;97092;-77
2023/10/18 17:16:21;;;;;;;2.03;0.93;;;;;;;20.23;71.91;99108.69;10254407;28;97262;-77
2023/10/18 17:21:24;;;;;;;3.35;1.42;;;;;;;20.06;72.52;99073.94;10253009;28;96775;-77
2023/10/18 17:26:30;;;;;;;4.18;1.70;;;;;;;20.19;72.48;99061.03;10253447;28;96858;-77
2023/10/18 17:31:36;;;;;;;1.77;0.70;;;;;;;20.21;72.33;99069.75;10251795;28;97316;-77
2023/10/18 17:37:00;;;;;;;2.35;0.70;;;;;;;20.00;72.46;99075.34;10252000;28;96606;-77
2023/10/18 17:42:05;;;;;;;2.55;0.73;;;;;;;19.82;74.49;99103.81;10252797;28;96778;-76
2023/10/18 17:47:09;;;;;;;4.03;0.70;;;;;;;19.82;73.93;99103.81;10252606;28;96862;-77
2023/10/18 17:52:14;;;;;;;2.80;0.70;;;;;;;19.89;73.66;99064.03;10252509;28;96818;-77
2023/10/18 17:57:21;;;;;;;0.98;0.55;;;;;;;19.99;73.60;99054.16;10251904;28;97008;-77
2023/10/18 18:02:25;;;;;;;1.65;0.32;;;;;;;19.91;73.59;99060.22;10251777;28;96758;-77
2023/10/18 18:07:29;;;;;;;0.60;0.30;;;;;;;19.89;73.94;99045.34;10252689;28;97120;-77
2023/10/18 18:12:40;;;;;;;5.78;2.03;;;;;;;19.68;75.92;99028.72;10251993;28;97351;-76
2023/10/18 18:17:44;;;;;;;1.88;0.68;;;;;;;19.66;75.94;99030.69;10252524;28;96886;-77
2023/10/18 18:22:50;;;;;;;4.43;1.23;;;;;;;19.47;77.18;99068.97;10250854;28;96985;-77
2023/10/18 18:28:00;;;;;;;7.93;2.70;;;;;;;19.61;75.95;99039.16;10251484;28;97277;-77
2023/10/18 18:33:04;;;;;;;4.07;1.90;;;;;;;19.43;77.16;99014.22;10251136;28;96692;-76
2023/10/18 18:38:07;;;;;;;2.90;1.50;;;;;;;19.42;77.53;99011.69;10251588;28;96982;-76
2023/10/18 18:43:13;;;;;;;2.45;0.93;;;;;;;19.48;77.28;98976.41;10256364;28;96813;-76
2023/10/18 18:48:17;;;;;;;1.63;1.20;;;;;;;19.15;79.74;98948.44;10257775;28;96820;-77
2023/10/18 18:53:20;;;;;;;1.92;0.60;;;;;;;19.36;78.24;98977.56;10284758;28;96704;-76
2023/10/18 18:58:30;;;;;;;3.13;0.82;;;;;;;19.43;77.18;98928.00;10280032;28;96707;-77
2023/10/18 19:03:36;;;;;;;1.23;0.75;;;;;;;19.39;77.29;98911.41;10256940;28;97394;-77
2023/10/18 19:08:39;;;;;;;2.50;0.60;;;;;;;19.48;77.15;98881.22;10257836;28;97300;-77
2023/10/18 19:13:43;;;;;;;1.42;0.90;;;;;;;19.45;77.14;98851.31;10256150;28;97095;-76
2023/10/18 19:18:46;;;;;;;;;;;;;;;19.44;78.36;98861.13;10257490;28;97482;-77
2023/10/18 19:23:50;;;;;;;0.75;0.55;;;;;;;19.40;77.25;98872.25;10257425;28;97642;-77
2023/10/18 19:28:54;;;;;;;2.38;0.40;;;;;;;19.44;77.22;98861.13;10256437;28;97267;-77
2023/10/18 19:33:57;;;;;;;;;;;;;;;19.40;78.58;98814.44;10256963;28;97003;-77
2023/10/18 19:39:03;;;;;;;0.22;0.20;;;;;;;19.29;78.56;98771.91;10256249;28;96949;-77
2023/10/18 19:44:12;;;;;;;0.32;0.30;;;;;;;19.28;78.61;98736.41;10256349;28;97185;-78
2023/10/18 19:49:20;;;;;;;0.35;0.20;;;;;;;19.37;78.24;98745.34;10265542;28;96736;-76
2023/10/18 19:54:24;;;;;;;0.43;0.20;;;;;;;19.37;78.63;98808.53;10270543;28;96744;-77
2023/10/18 19:59:33;;;;;;;0.10;0.10;;;;;;;19.21;80.13;98798.53;10255882;28;97729;-78
2023/10/18 20:04:36;;;;;;;0.10;0.10;;;;;;;19.08;80.80;98771.34;10253928;28;96810;-78
2023/10/18 20:09:46;;;;;;;0.13;0.00;;;;;;;19.00;81.35;98795.28;10255746;28;97283;-77
2023/10/18 20:14:55;;;;;;;0.70;0.10;;;;;;;19.00;81.39;98841.44;10254726;28;97289;-78
2023/10/18 20:19:59;;;;;;;0.75;0.20;;;;;;;18.98;81.43;98926.06;10255193;28;97254;-78
2023/10/18 20:25:03;;;;;;;0.20;0.10;;;;;;;18.92;81.98;99005.78;10255072;28;96976;-77
2023/10/18 20:30:09;;;;;;;2.13;0.30;;;;;;;18.78;81.49;98960.91;10254779;28;96833;-77
2023/10/18 20:35:13;;;;;;;0.25;0.13;;;;;;;18.52;81.99;98928.72;10254285;28;96702;-78
2023/10/18 20:40:16;;;;;;;0.00;0.00;;;;;;;18.53;82.57;98949.03;10255699;28;96980;-78
2023/10/18 20:45:21;;;;;;;0.35;0.17;;;;;;;18.62;81.58;98926.84;10254413;28;96947;-77
2023/10/18 20:50:26;;;;;;;1.35;0.20;;;;;;;18.55;81.08;98923.09;10282238;28;97035;-77
2023/10/18 20:55:30;;;;;;;0.38;0.10;;;;;;;18.63;81.16;98949.84;10269781;28;97192;-77
2023/10/18 21:00:36;;;;;;;0.22;0.20;;;;;;;18.44;82.82;98938.31;10253751;28;97003;-76
2023/10/18 21:05:43;;;;;;;0.30;0.20;;;;;;;18.55;82.21;98949.72;10252853;28;97715;-76
2023/10/18 21:10:46;;;;;;;0.70;0.20;;;;;;;18.59;82.16;98931.63;10253073;28;96645;-76
2023/10/18 21:15:51;;;;;;;0.75;0.17;;;;;;;18.62;81.63;98929.53;10253204;28;97181;-76
2023/10/18 21:21:03;;;;;;;0.50;0.20;;;;;;;18.74;81.56;98938.19;10253159;28;96665;-76
2023/10/18 21:26:08;;;;;;;0.20;0.13;;;;;;;18.78;81.43;98939.59;10253115;28;97561;-76
2023/10/18 21:31:14;;;;;;;0.00;0.00;;;;;;;18.77;81.01;98940.56;10253727;28;97162;-76
2023/10/18 21:36:19;;;;;;;0.60;0.20;;;;;;;18.78;81.32;98956.41;10252658;28;96744;-77
2023/10/18 21:41:24;;;;;;;1.15;0.20;;;;;;;18.84;81.54;98950.50;10252761;28;97347;-77
2023/10/18 21:46:30;;;;;;;0.68;0.20;;;;;;;18.79;81.49;98942.09;10260215;28;97006;-77
2023/10/18 21:51:33;;;;;;;0.77;0.28;;;;;;;18.87;81.55;98944.06;10282469;28;97476;-77
2023/10/18 21:56:37;;;;;;;1.15;0.50;;;;;;;18.93;81.42;98964.78;10252483;28;97220;-76
2023/10/18 22:01:41;;;;;;;1.15;0.32;;;;;;;18.94;81.54;98940.66;10252174;28;97273;-76
2023/10/18 22:06:45;;;;;;;0.43;0.20;;;;;;;19.02;81.33;98938.13;10251957;28;96647;-76
2023/10/18 22:11:49;;;;;;;0.35;0.20;;;;;;;19.02;81.36;98931.94;10252099;28;97377;-76
2023/10/18 22:16:57;;;;;;;0.63;0.20;;;;;;;19.11;81.03;98917.75;10255979;28;97439;-76
2023/10/18 22:22:10;;;;;;;1.77;0.30;;;;;;;19.17;80.99;98896.66;10259324;28;97230;-76
2023/10/18 22:27:16;;;;;;;2.75;0.50;;;;;;;19.13;80.89;98881.91;10258285;28;97227;-76
2023/10/18 22:32:24;;;;;;;0.70;0.37;;;;;;;19.09;81.49;98880.53;10257974;28;97350;-76
2023/10/18 22:37:28;;;;;;;0.55;0.55;;;;;;;19.06;81.79;98872.81;10257425;28;96636;-76
2023/10/18 22:42:38;;;;;;;1.90;0.40;;;;;;;19.13;81.79;98849.91;10257773;28;96757;-76
2023/10/18 22:47:44;;;;;;;1.13;0.25;;;;;;;19.10;82.05;98836.03;10283730;28;97768;-76
2023/10/18 22:52:53;;;;;;;0.52;0.30;;;;;;;19.20;81.80;98851.00;10262678;28;97166;-76
2023/10/18 22:57:57;;;;;;;1.10;0.20;;;;;;;19.15;81.89;98834.63;10257657;28;96747;-76
2023/10/18 23:03:09;;;;;;;2.20;0.30;;;;;;;19.01;82.72;98831.59;10257138;28;96629;-76
2023/10/18 23:08:22;;;;;;;1.35;0.60;;;;;;;18.89;83.29;98838.09;10257612;28;97605;-76
2023/10/18 23:13:36;;;;;;;1.45;0.45;;;;;;;19.01;82.63;98836.94;10257960;28;96816;-76
2023/10/18 23:18:53;;;;;;;2.65;0.50;;;;;;;19.03;83.32;98833.13;10257015;28;97137;-76
2023/10/18 23:24:22;;;;;;;0.90;0.30;;;;;;;19.06;82.78;98859.50;10256384;28;97296;-76
2023/10/18 23:29:32;;;;;;;4.18;0.77;;;;;;;19.12;82.63;98868.75;10255444;28;96807;-76
2023/10/18 23:34:49;;;;;;;2.92;0.70;;;;;;;19.11;84.21;98875.91;10256417;28;97239;-76
2023/10/18 23:39:55;;;;;;;7.28;1.77;;;;;;;19.28;83.23;98864.44;10256770;28;97082;-76
2023/10/18 23:45:12;;;;;;;5.07;1.20;;;;;;;19.34;83.97;98852.31;10269659;28;97394;-76
2023/10/18 23:50:21;;;;;;;7.07;1.55;;;;;;;19.43;82.68;98859.47;10265331;28;97243;-76
2023/10/18 23:55:33;;;;;;;6.78;1.10;;;;;;;19.49;82.69;98810.88;10255197;28;96847;-76
